sensor_id;sensor_type;location;lat;lon;timestamp;P1;durP1;ratioP1;P2;durP2;ratioP2
7773;SDS011;3931;42.260;23.116;2023-01-23T00:00:27;27.57;;;13.97;;
7773;SDS011;3931;42.260;23.116;2023-01-23T00:02:54;27.23;;;14.10;;
7773;SDS011;3931;42.260;23.116;2023-01-23T00:05:21;23.30;;;13.80;;
7773;SDS011;3931;42.260;23.116;2023-01-23T00:07:47;24.13;;;11.93;;
7773;SDS011;3931;42.260;23.116;2023-01-23T00:10:13;26.13;;;12.57;;
7773;SDS011;3931;42.260;23.116;2023-01-23T00:12:40;28.67;;;14.90;;
7773;SDS011;3931;42.260;23.116;2023-01-23T00:15:07;34.27;;;14.03;;
7773;SDS011;3931;42.260;23.116;2023-01-23T00:17:34;33.60;;;13.63;;
7773;SDS011;3931;42.260;23.116;2023-01-23T00:20:00;25.27;;;13.73;;
7773;SDS011;3931;42.260;23.116;2023-01-23T00:22:26;30.87;;;16.20;;
7773;SDS011;3931;42.260;23.116;2023-01-23T00:24:53;36.93;;;14.97;;
7773;SDS011;3931;42.260;23.116;2023-01-23T00:27:19;30.23;;;13.50;;
7773;SDS011;3931;42.260;23.116;2023-01-23T00:29:45;26.60;;;12.60;;
7773;SDS011;3931;42.260;23.116;2023-01-23T00:32:11;44.37;;;15.87;;
7773;SDS011;3931;42.260;23.116;2023-01-23T00:34:38;39.57;;;14.13;;
7773;SDS011;3931;42.260;23.116;2023-01-23T00:37:04;44.13;;;15.67;;
7773;SDS011;3931;42.260;23.116;2023-01-23T00:39:30;40.90;;;15.60;;
7773;SDS011;3931;42.260;23.116;2023-01-23T00:41:56;35.80;;;14.17;;
7773;SDS011;3931;42.260;23.116;2023-01-23T00:44:22;36.53;;;14.80;;
7773;SDS011;3931;42.260;23.116;2023-01-23T00:46:49;33.70;;;13.90;;
7773;SDS011;3931;42.260;23.116;2023-01-23T00:49:15;25.47;;;12.00;;
7773;SDS011;3931;42.260;23.116;2023-01-23T00:51:41;37.67;;;13.97;;
7773;SDS011;3931;42.260;23.116;2023-01-23T00:54:07;30.80;;;15.10;;
7773;SDS011;3931;42.260;23.116;2023-01-23T00:56:33;36.03;;;17.00;;
7773;SDS011;3931;42.260;23.116;2023-01-23T00:59:00;35.43;;;17.17;;
7773;SDS011;3931;42.260;23.116;2023-01-23T01:01:26;40.50;;;16.93;;
7773;SDS011;3931;42.260;23.116;2023-01-23T01:03:55;43.40;;;15.97;;
7773;SDS011;3931;42.260;23.116;2023-01-23T01:06:22;32.30;;;15.13;;
7773;SDS011;3931;42.260;23.116;2023-01-23T01:08:48;28.93;;;13.30;;
7773;SDS011;3931;42.260;23.116;2023-01-23T01:11:14;16.20;;;7.43;;
7773;SDS011;3931;42.260;23.116;2023-01-23T01:13:40;19.47;;;6.80;;
7773;SDS011;3931;42.260;23.116;2023-01-23T01:16:08;13.37;;;7.60;;
7773;SDS011;3931;42.260;23.116;2023-01-23T01:18:34;13.60;;;7.20;;
7773;SDS011;3931;42.260;23.116;2023-01-23T01:21:04;16.90;;;8.00;;
7773;SDS011;3931;42.260;23.116;2023-01-23T01:23:32;13.37;;;7.33;;
7773;SDS011;3931;42.260;23.116;2023-01-23T01:25:58;21.40;;;11.73;;
7773;SDS011;3931;42.260;23.116;2023-01-23T01:28:24;19.13;;;8.10;;
7773;SDS011;3931;42.260;23.116;2023-01-23T01:30:51;17.63;;;8.30;;
7773;SDS011;3931;42.260;23.116;2023-01-23T01:33:17;16.50;;;7.80;;
7773;SDS011;3931;42.260;23.116;2023-01-23T01:35:44;13.70;;;6.60;;
7773;SDS011;3931;42.260;23.116;2023-01-23T01:38:10;17.77;;;7.40;;
7773;SDS011;3931;42.260;23.116;2023-01-23T01:40:36;16.63;;;6.70;;
7773;SDS011;3931;42.260;23.116;2023-01-23T01:43:03;17.93;;;8.33;;
7773;SDS011;3931;42.260;23.116;2023-01-23T01:48:28;18.30;;;8.33;;
7773;SDS011;3931;42.260;23.116;2023-01-23T01:50:57;16.23;;;7.93;;
7773;SDS011;3931;42.260;23.116;2023-01-23T01:53:25;16.40;;;7.97;;
7773;SDS011;3931;42.260;23.116;2023-01-23T01:55:53;21.30;;;7.90;;
7773;SDS011;3931;42.260;23.116;2023-01-23T01:58:21;23.80;;;10.87;;
7773;SDS011;3931;42.260;23.116;2023-01-23T02:00:47;15.17;;;9.23;;
7773;SDS011;3931;42.260;23.116;2023-01-23T02:03:13;11.23;;;7.20;;
7773;SDS011;3931;42.260;23.116;2023-01-23T02:05:42;16.03;;;7.50;;
7773;SDS011;3931;42.260;23.116;2023-01-23T02:08:12;19.63;;;8.80;;
7773;SDS011;3931;42.260;23.116;2023-01-23T02:10:43;13.57;;;7.90;;
7773;SDS011;3931;42.260;23.116;2023-01-23T02:13:20;15.40;;;6.90;;
7773;SDS011;3931;42.260;23.116;2023-01-23T02:15:48;15.27;;;7.70;;
7773;SDS011;3931;42.260;23.116;2023-01-23T02:18:14;10.67;;;7.07;;
7773;SDS011;3931;42.260;23.116;2023-01-23T02:20:40;13.83;;;8.43;;
7773;SDS011;3931;42.260;23.116;2023-01-23T02:23:08;23.57;;;8.80;;
7773;SDS011;3931;42.260;23.116;2023-01-23T02:25:48;12.73;;;8.37;;
7773;SDS011;3931;42.260;23.116;2023-01-23T02:28:17;15.93;;;7.67;;
7773;SDS011;3931;42.260;23.116;2023-01-23T02:30:43;10.17;;;6.30;;
7773;SDS011;3931;42.260;23.116;2023-01-23T02:33:39;18.67;;;6.17;;
7773;SDS011;3931;42.260;23.116;2023-01-23T02:36:12;13.23;;;6.53;;
7773;SDS011;3931;42.260;23.116;2023-01-23T02:38:39;12.50;;;7.20;;
7773;SDS011;3931;42.260;23.116;2023-01-23T02:41:13;10.57;;;5.97;;
7773;SDS011;3931;42.260;23.116;2023-01-23T02:43:42;9.37;;;5.37;;
7773;SDS011;3931;42.260;23.116;2023-01-23T02:46:10;9.77;;;6.00;;
7773;SDS011;3931;42.260;23.116;2023-01-23T02:48:37;10.20;;;4.70;;
7773;SDS011;3931;42.260;23.116;2023-01-23T02:51:05;8.50;;;5.40;;
7773;SDS011;3931;42.260;23.116;2023-01-23T02:53:31;9.07;;;5.23;;
7773;SDS011;3931;42.260;23.116;2023-01-23T02:55:57;15.70;;;5.60;;
7773;SDS011;3931;42.260;23.116;2023-01-23T02:58:24;9.07;;;5.27;;
7773;SDS011;3931;42.260;23.116;2023-01-23T03:01:09;8.77;;;5.30;;
7773;SDS011;3931;42.260;23.116;2023-01-23T03:03:35;6.60;;;4.37;;
7773;SDS011;3931;42.260;23.116;2023-01-23T03:06:01;9.63;;;4.93;;
7773;SDS011;3931;42.260;23.116;2023-01-23T03:08:28;14.30;;;6.00;;
7773;SDS011;3931;42.260;23.116;2023-01-23T03:11:00;11.73;;;5.57;;
7773;SDS011;3931;42.260;23.116;2023-01-23T03:13:27;12.17;;;5.80;;
7773;SDS011;3931;42.260;23.116;2023-01-23T03:15:53;11.97;;;6.17;;
7773;SDS011;3931;42.260;23.116;2023-01-23T03:18:20;8.67;;;6.17;;
7773;SDS011;3931;42.260;23.116;2023-01-23T03:20:46;10.90;;;6.40;;
7773;SDS011;3931;42.260;23.116;2023-01-23T03:23:12;12.00;;;5.80;;
7773;SDS011;3931;42.260;23.116;2023-01-23T03:25:42;17.60;;;12.20;;
7773;SDS011;3931;42.260;23.116;2023-01-23T03:28:08;52.30;;;33.00;;
7773;SDS011;3931;42.260;23.116;2023-01-23T03:30:55;59.80;;;37.97;;
7773;SDS011;3931;42.260;23.116;2023-01-23T03:33:21;70.50;;;41.97;;
7773;SDS011;3931;42.260;23.116;2023-01-23T03:35:47;43.83;;;27.83;;
7773;SDS011;3931;42.260;23.116;2023-01-23T03:38:13;37.50;;;26.80;;
7773;SDS011;3931;42.260;23.116;2023-01-23T03:40:42;29.30;;;21.50;;
7773;SDS011;3931;42.260;23.116;2023-01-23T03:43:29;25.93;;;16.00;;
7773;SDS011;3931;42.260;23.116;2023-01-23T03:45:56;25.50;;;18.17;;
7773;SDS011;3931;42.260;23.116;2023-01-23T03:48:22;26.07;;;17.60;;
7773;SDS011;3931;42.260;23.116;2023-01-23T03:50:48;25.13;;;16.70;;
7773;SDS011;3931;42.260;23.116;2023-01-23T03:53:14;24.10;;;15.20;;
7773;SDS011;3931;42.260;23.116;2023-01-23T03:55:40;20.57;;;11.47;;
7773;SDS011;3931;42.260;23.116;2023-01-23T03:58:06;13.50;;;10.00;;
7773;SDS011;3931;42.260;23.116;2023-01-23T04:00:32;18.53;;;8.73;;
7773;SDS011;3931;42.260;23.116;2023-01-23T04:02:58;21.80;;;9.80;;
7773;SDS011;3931;42.260;23.116;2023-01-23T04:05:24;23.87;;;10.60;;
7773;SDS011;3931;42.260;23.116;2023-01-23T04:07:50;16.40;;;9.27;;
7773;SDS011;3931;42.260;23.116;2023-01-23T04:10:16;23.57;;;10.57;;
7773;SDS011;3931;42.260;23.116;2023-01-23T04:12:43;21.20;;;9.90;;
7773;SDS011;3931;42.260;23.116;2023-01-23T04:15:10;25.93;;;11.07;;
7773;SDS011;3931;42.260;23.116;2023-01-23T04:17:36;25.63;;;11.07;;
7773;SDS011;3931;42.260;23.116;2023-01-23T04:20:03;24.67;;;11.73;;
7773;SDS011;3931;42.260;23.116;2023-01-23T04:22:29;22.93;;;10.57;;
7773;SDS011;3931;42.260;23.116;2023-01-23T04:24:55;20.95;;;9.90;;
7773;SDS011;3931;42.260;23.116;2023-01-23T04:27:21;17.37;;;9.33;;
7773;SDS011;3931;42.260;23.116;2023-01-23T04:29:47;56.00;;;20.87;;
7773;SDS011;3931;42.260;23.116;2023-01-23T04:32:14;51.33;;;21.37;;
7773;SDS011;3931;42.260;23.116;2023-01-23T04:34:40;15.77;;;9.10;;
7773;SDS011;3931;42.260;23.116;2023-01-23T04:37:06;93.13;;;31.00;;
7773;SDS011;3931;42.260;23.116;2023-01-23T04:39:32;60.70;;;23.23;;
7773;SDS011;3931;42.260;23.116;2023-01-23T04:41:58;16.03;;;8.60;;
7773;SDS011;3931;42.260;23.116;2023-01-23T04:44:24;81.47;;;31.70;;
7773;SDS011;3931;42.260;23.116;2023-01-23T04:46:51;94.20;;;36.07;;
7773;SDS011;3931;42.260;23.116;2023-01-23T04:49:20;87.87;;;37.70;;
7773;SDS011;3931;42.260;23.116;2023-01-23T04:51:46;36.47;;;17.90;;
7773;SDS011;3931;42.260;23.116;2023-01-23T04:54:14;19.73;;;10.57;;
7773;SDS011;3931;42.260;23.116;2023-01-23T04:56:40;13.70;;;7.90;;
7773;SDS011;3931;42.260;23.116;2023-01-23T04:59:07;32.60;;;17.73;;
7773;SDS011;3931;42.260;23.116;2023-01-23T05:01:33;64.83;;;35.20;;
7773;SDS011;3931;42.260;23.116;2023-01-23T05:03:59;33.80;;;20.10;;
7773;SDS011;3931;42.260;23.116;2023-01-23T05:06:26;25.03;;;12.70;;
7773;SDS011;3931;42.260;23.116;2023-01-23T05:08:52;27.13;;;13.87;;
7773;SDS011;3931;42.260;23.116;2023-01-23T05:11:18;30.27;;;15.60;;
7773;SDS011;3931;42.260;23.116;2023-01-23T05:13:44;32.30;;;15.00;;
7773;SDS011;3931;42.260;23.116;2023-01-23T05:16:10;32.53;;;17.73;;
7773;SDS011;3931;42.260;23.116;2023-01-23T05:18:36;31.33;;;16.77;;
7773;SDS011;3931;42.260;23.116;2023-01-23T05:21:02;41.43;;;20.73;;
7773;SDS011;3931;42.260;23.116;2023-01-23T05:23:29;36.43;;;20.23;;
7773;SDS011;3931;42.260;23.116;2023-01-23T05:25:55;32.47;;;19.33;;
7773;SDS011;3931;42.260;23.116;2023-01-23T05:28:21;48.33;;;25.33;;
7773;SDS011;3931;42.260;23.116;2023-01-23T05:30:47;40.40;;;20.10;;
7773;SDS011;3931;42.260;23.116;2023-01-23T05:33:13;50.60;;;25.83;;
7773;SDS011;3931;42.260;23.116;2023-01-23T05:35:40;52.13;;;24.37;;
7773;SDS011;3931;42.260;23.116;2023-01-23T05:38:06;46.10;;;22.80;;
7773;SDS011;3931;42.260;23.116;2023-01-23T05:40:33;55.72;;;29.33;;
7773;SDS011;3931;42.260;23.116;2023-01-23T05:42:59;58.17;;;29.60;;
7773;SDS011;3931;42.260;23.116;2023-01-23T05:45:25;58.93;;;28.57;;
7773;SDS011;3931;42.260;23.116;2023-01-23T05:47:51;51.53;;;26.03;;
7773;SDS011;3931;42.260;23.116;2023-01-23T05:50:17;49.80;;;26.17;;
7773;SDS011;3931;42.260;23.116;2023-01-23T05:52:44;43.07;;;21.57;;
7773;SDS011;3931;42.260;23.116;2023-01-23T05:55:10;32.23;;;17.87;;
7773;SDS011;3931;42.260;23.116;2023-01-23T05:57:38;38.03;;;20.37;;
7773;SDS011;3931;42.260;23.116;2023-01-23T06:00:04;31.73;;;16.33;;
7773;SDS011;3931;42.260;23.116;2023-01-23T06:02:32;33.00;;;19.00;;
7773;SDS011;3931;42.260;23.116;2023-01-23T06:04:59;32.77;;;18.10;;
7773;SDS011;3931;42.260;23.116;2023-01-23T06:07:25;32.60;;;19.10;;
7773;SDS011;3931;42.260;23.116;2023-01-23T06:09:51;39.70;;;21.57;;
7773;SDS011;3931;42.260;23.116;2023-01-23T06:12:17;31.90;;;17.10;;
7773;SDS011;3931;42.260;23.116;2023-01-23T06:14:44;39.00;;;17.37;;
7773;SDS011;3931;42.260;23.116;2023-01-23T06:17:11;40.27;;;18.17;;
7773;SDS011;3931;42.260;23.116;2023-01-23T06:19:37;45.13;;;22.23;;
7773;SDS011;3931;42.260;23.116;2023-01-23T06:22:03;66.33;;;30.87;;
7773;SDS011;3931;42.260;23.116;2023-01-23T06:24:29;58.40;;;30.17;;
7773;SDS011;3931;42.260;23.116;2023-01-23T06:26:55;281.60;;;98.23;;
7773;SDS011;3931;42.260;23.116;2023-01-23T06:29:21;68.50;;;31.77;;
7773;SDS011;3931;42.260;23.116;2023-01-23T06:31:48;48.83;;;20.60;;
7773;SDS011;3931;42.260;23.116;2023-01-23T06:34:14;38.43;;;19.90;;
7773;SDS011;3931;42.260;23.116;2023-01-23T06:36:40;44.13;;;23.03;;
7773;SDS011;3931;42.260;23.116;2023-01-23T06:39:07;68.57;;;32.67;;
7773;SDS011;3931;42.260;23.116;2023-01-23T06:41:36;77.40;;;37.40;;
7773;SDS011;3931;42.260;23.116;2023-01-23T06:44:02;60.93;;;29.37;;
7773;SDS011;3931;42.260;23.116;2023-01-23T06:46:28;54.97;;;27.33;;
7773;SDS011;3931;42.260;23.116;2023-01-23T06:48:55;62.57;;;34.20;;
7773;SDS011;3931;42.260;23.116;2023-01-23T06:51:21;60.03;;;32.17;;
7773;SDS011;3931;42.260;23.116;2023-01-23T06:53:47;71.40;;;34.73;;
7773;SDS011;3931;42.260;23.116;2023-01-23T06:56:13;62.10;;;32.17;;
7773;SDS011;3931;42.260;23.116;2023-01-23T06:58:42;62.20;;;31.50;;
7773;SDS011;3931;42.260;23.116;2023-01-23T07:01:09;68.13;;;35.30;;
7773;SDS011;3931;42.260;23.116;2023-01-23T07:03:35;75.27;;;39.67;;
7773;SDS011;3931;42.260;23.116;2023-01-23T07:06:03;80.60;;;43.30;;
7773;SDS011;3931;42.260;23.116;2023-01-23T07:08:31;98.50;;;54.93;;
7773;SDS011;3931;42.260;23.116;2023-01-23T07:10:57;62.63;;;34.00;;
7773;SDS011;3931;42.260;23.116;2023-01-23T07:13:23;59.43;;;34.77;;
7773;SDS011;3931;42.260;23.116;2023-01-23T07:15:50;69.10;;;40.30;;
7773;SDS011;3931;42.260;23.116;2023-01-23T07:18:16;70.10;;;39.20;;
7773;SDS011;3931;42.260;23.116;2023-01-23T07:20:42;73.60;;;41.33;;
7773;SDS011;3931;42.260;23.116;2023-01-23T07:23:09;76.70;;;44.33;;
7773;SDS011;3931;42.260;23.116;2023-01-23T07:25:35;77.17;;;43.57;;
7773;SDS011;3931;42.260;23.116;2023-01-23T07:28:01;80.93;;;44.83;;
7773;SDS011;3931;42.260;23.116;2023-01-23T07:30:28;86.00;;;48.90;;
7773;SDS011;3931;42.260;23.116;2023-01-23T07:32:54;83.63;;;46.03;;
7773;SDS011;3931;42.260;23.116;2023-01-23T07:35:20;77.80;;;44.33;;
7773;SDS011;3931;42.260;23.116;2023-01-23T07:37:46;96.93;;;51.30;;
7773;SDS011;3931;42.260;23.116;2023-01-23T07:40:13;102.07;;;56.57;;
7773;SDS011;3931;42.260;23.116;2023-01-23T07:42:39;101.83;;;51.40;;
7773;SDS011;3931;42.260;23.116;2023-01-23T07:45:06;101.30;;;52.40;;
7773;SDS011;3931;42.260;23.116;2023-01-23T07:47:34;106.07;;;54.53;;
7773;SDS011;3931;42.260;23.116;2023-01-23T07:50:00;98.83;;;55.23;;
7773;SDS011;3931;42.260;23.116;2023-01-23T07:52:26;89.63;;;48.47;;
7773;SDS011;3931;42.260;23.116;2023-01-23T07:54:52;87.60;;;48.73;;
7773;SDS011;3931;42.260;23.116;2023-01-23T07:57:19;121.47;;;65.50;;
7773;SDS011;3931;42.260;23.116;2023-01-23T07:59:46;95.50;;;52.20;;
7773;SDS011;3931;42.260;23.116;2023-01-23T08:02:12;87.00;;;49.17;;
7773;SDS011;3931;42.260;23.116;2023-01-23T08:04:38;99.00;;;53.33;;
7773;SDS011;3931;42.260;23.116;2023-01-23T08:07:04;114.23;;;57.80;;
7773;SDS011;3931;42.260;23.116;2023-01-23T08:09:31;138.37;;;71.07;;
7773;SDS011;3931;42.260;23.116;2023-01-23T08:11:57;77.60;;;40.47;;
7773;SDS011;3931;42.260;23.116;2023-01-23T08:14:23;56.70;;;27.10;;
7773;SDS011;3931;42.260;23.116;2023-01-23T08:16:49;70.50;;;28.70;;
7773;SDS011;3931;42.260;23.116;2023-01-23T08:19:16;83.20;;;32.67;;
7773;SDS011;3931;42.260;23.116;2023-01-23T08:21:43;80.13;;;34.53;;
7773;SDS011;3931;42.260;23.116;2023-01-23T08:24:09;49.17;;;23.03;;
7773;SDS011;3931;42.260;23.116;2023-01-23T08:26:36;52.93;;;21.40;;
7773;SDS011;3931;42.260;23.116;2023-01-23T08:29:02;31.53;;;15.40;;
7773;SDS011;3931;42.260;23.116;2023-01-23T08:31:29;27.67;;;12.97;;
7773;SDS011;3931;42.260;23.116;2023-01-23T08:33:55;25.97;;;12.30;;
7773;SDS011;3931;42.260;23.116;2023-01-23T08:36:22;22.20;;;11.37;;
7773;SDS011;3931;42.260;23.116;2023-01-23T08:38:48;14.23;;;8.63;;
7773;SDS011;3931;42.260;23.116;2023-01-23T08:41:14;14.40;;;8.03;;
7773;SDS011;3931;42.260;23.116;2023-01-23T08:43:40;15.43;;;8.57;;
7773;SDS011;3931;42.260;23.116;2023-01-23T08:46:07;13.13;;;8.17;;
7773;SDS011;3931;42.260;23.116;2023-01-23T08:48:34;13.07;;;7.50;;
7773;SDS011;3931;42.260;23.116;2023-01-23T08:51:01;14.60;;;7.70;;
7773;SDS011;3931;42.260;23.116;2023-01-23T08:53:29;12.93;;;7.20;;
7773;SDS011;3931;42.260;23.116;2023-01-23T08:55:57;10.90;;;7.90;;
7773;SDS011;3931;42.260;23.116;2023-01-23T08:58:24;11.47;;;7.80;;
7773;SDS011;3931;42.260;23.116;2023-01-23T09:00:50;17.40;;;9.13;;
7773;SDS011;3931;42.260;23.116;2023-01-23T09:03:16;15.13;;;10.47;;
7773;SDS011;3931;42.260;23.116;2023-01-23T09:05:43;15.20;;;9.07;;
7773;SDS011;3931;42.260;23.116;2023-01-23T09:08:09;10.70;;;7.60;;
7773;SDS011;3931;42.260;23.116;2023-01-23T09:10:35;14.87;;;10.27;;
7773;SDS011;3931;42.260;23.116;2023-01-23T09:13:01;20.10;;;13.43;;
7773;SDS011;3931;42.260;23.116;2023-01-23T09:15:27;14.10;;;9.43;;
7773;SDS011;3931;42.260;23.116;2023-01-23T09:17:53;12.77;;;8.37;;
7773;SDS011;3931;42.260;23.116;2023-01-23T09:20:19;15.97;;;10.13;;
7773;SDS011;3931;42.260;23.116;2023-01-23T09:22:46;13.53;;;8.60;;
7773;SDS011;3931;42.260;23.116;2023-01-23T09:25:12;15.20;;;9.50;;
7773;SDS011;3931;42.260;23.116;2023-01-23T09:27:38;24.50;;;11.37;;
7773;SDS011;3931;42.260;23.116;2023-01-23T09:30:05;19.03;;;11.00;;
7773;SDS011;3931;42.260;23.116;2023-01-23T09:32:32;13.10;;;8.30;;
7773;SDS011;3931;42.260;23.116;2023-01-23T09:34:58;16.87;;;9.83;;
7773;SDS011;3931;42.260;23.116;2023-01-23T09:37:24;14.90;;;9.80;;
7773;SDS011;3931;42.260;23.116;2023-01-23T09:39:51;11.57;;;8.33;;
7773;SDS011;3931;42.260;23.116;2023-01-23T09:42:17;13.67;;;10.07;;
7773;SDS011;3931;42.260;23.116;2023-01-23T09:44:46;13.40;;;8.50;;
7773;SDS011;3931;42.260;23.116;2023-01-23T09:47:15;12.53;;;7.20;;
7773;SDS011;3931;42.260;23.116;2023-01-23T09:49:45;14.77;;;9.60;;
7773;SDS011;3931;42.260;23.116;2023-01-23T09:52:18;15.10;;;9.87;;
7773;SDS011;3931;42.260;23.116;2023-01-23T09:54:46;17.37;;;8.70;;
7773;SDS011;3931;42.260;23.116;2023-01-23T09:57:15;18.93;;;8.73;;
7773;SDS011;3931;42.260;23.116;2023-01-23T09:59:47;12.50;;;8.07;;
7773;SDS011;3931;42.260;23.116;2023-01-23T10:02:16;13.67;;;8.60;;
7773;SDS011;3931;42.260;23.116;2023-01-23T10:04:45;14.03;;;8.43;;
7773;SDS011;3931;42.260;23.116;2023-01-23T10:07:17;10.23;;;6.80;;
7773;SDS011;3931;42.260;23.116;2023-01-23T10:10:03;8.23;;;6.20;;
7773;SDS011;3931;42.260;23.116;2023-01-23T10:12:46;8.73;;;6.53;;
7773;SDS011;3931;42.260;23.116;2023-01-23T10:15:24;25.23;;;10.63;;
7773;SDS011;3931;42.260;23.116;2023-01-23T10:18:02;16.13;;;10.87;;
7773;SDS011;3931;42.260;23.116;2023-01-23T10:20:42;12.10;;;8.17;;
7773;SDS011;3931;42.260;23.116;2023-01-23T10:23:18;17.67;;;10.57;;
7773;SDS011;3931;42.260;23.116;2023-01-23T10:26:01;13.40;;;9.07;;
7773;SDS011;3931;42.260;23.116;2023-01-23T10:28:31;9.93;;;5.80;;
7773;SDS011;3931;42.260;23.116;2023-01-23T10:31:02;17.30;;;9.77;;
7773;SDS011;3931;42.260;23.116;2023-01-23T10:33:34;12.30;;;7.87;;
7773;SDS011;3931;42.260;23.116;2023-01-23T10:36:05;12.23;;;8.30;;
7773;SDS011;3931;42.260;23.116;2023-01-23T10:38:39;15.70;;;10.03;;
7773;SDS011;3931;42.260;23.116;2023-01-23T10:41:10;13.30;;;8.83;;
7773;SDS011;3931;42.260;23.116;2023-01-23T10:43:38;12.20;;;8.57;;
7773;SDS011;3931;42.260;23.116;2023-01-23T10:46:09;12.07;;;8.67;;
7773;SDS011;3931;42.260;23.116;2023-01-23T10:48:39;17.00;;;9.70;;
7773;SDS011;3931;42.260;23.116;2023-01-23T10:53:59;24.37;;;13.13;;
7773;SDS011;3931;42.260;23.116;2023-01-23T10:56:26;20.47;;;9.00;;
7773;SDS011;3931;42.260;23.116;2023-01-23T10:58:54;11.63;;;8.27;;
7773;SDS011;3931;42.260;23.116;2023-01-23T11:01:22;12.30;;;9.00;;
7773;SDS011;3931;42.260;23.116;2023-01-23T11:03:51;12.93;;;8.43;;
7773;SDS011;3931;42.260;23.116;2023-01-23T11:06:19;16.17;;;9.77;;
7773;SDS011;3931;42.260;23.116;2023-01-23T11:08:50;21.57;;;12.10;;
7773;SDS011;3931;42.260;23.116;2023-01-23T11:11:21;27.50;;;14.70;;
7773;SDS011;3931;42.260;23.116;2023-01-23T11:13:49;27.80;;;13.40;;
7773;SDS011;3931;42.260;23.116;2023-01-23T11:16:17;39.57;;;15.67;;
7773;SDS011;3931;42.260;23.116;2023-01-23T11:18:47;22.67;;;12.00;;
7773;SDS011;3931;42.260;23.116;2023-01-23T11:21:19;28.30;;;13.57;;
7773;SDS011;3931;42.260;23.116;2023-01-23T11:23:45;28.97;;;13.33;;
7773;SDS011;3931;42.260;23.116;2023-01-23T11:28:56;10.33;;;7.30;;
7773;SDS011;3931;42.260;23.116;2023-01-23T11:31:23;24.63;;;13.03;;
7773;SDS011;3931;42.260;23.116;2023-01-23T11:33:53;11.27;;;7.87;;
7773;SDS011;3931;42.260;23.116;2023-01-23T11:36:28;15.60;;;9.10;;
7773;SDS011;3931;42.260;23.116;2023-01-23T11:39:04;17.13;;;8.50;;
7773;SDS011;3931;42.260;23.116;2023-01-23T11:41:41;11.53;;;7.07;;
7773;SDS011;3931;42.260;23.116;2023-01-23T11:44:11;9.83;;;5.93;;
7773;SDS011;3931;42.260;23.116;2023-01-23T11:46:48;11.30;;;7.20;;
7773;SDS011;3931;42.260;23.116;2023-01-23T11:49:28;16.73;;;9.00;;
7773;SDS011;3931;42.260;23.116;2023-01-23T11:52:10;12.90;;;7.70;;
7773;SDS011;3931;42.260;23.116;2023-01-23T11:54:52;13.87;;;6.73;;
7773;SDS011;3931;42.260;23.116;2023-01-23T11:57:30;18.53;;;9.50;;
7773;SDS011;3931;42.260;23.116;2023-01-23T12:00:15;17.70;;;9.20;;
7773;SDS011;3931;42.260;23.116;2023-01-23T12:02:57;35.83;;;16.83;;
7773;SDS011;3931;42.260;23.116;2023-01-23T12:05:51;28.10;;;13.57;;
7773;SDS011;3931;42.260;23.116;2023-01-23T12:08:49;21.30;;;10.20;;
7773;SDS011;3931;42.260;23.116;2023-01-23T12:11:22;15.20;;;9.47;;
7773;SDS011;3931;42.260;23.116;2023-01-23T12:14:03;13.77;;;8.60;;
7773;SDS011;3931;42.260;23.116;2023-01-23T12:16:42;10.90;;;7.17;;
7773;SDS011;3931;42.260;23.116;2023-01-23T12:19:25;11.93;;;7.23;;
7773;SDS011;3931;42.260;23.116;2023-01-23T12:22:03;10.73;;;6.73;;
7773;SDS011;3931;42.260;23.116;2023-01-23T12:24:39;16.10;;;9.80;;
7773;SDS011;3931;42.260;23.116;2023-01-23T12:27:19;9.47;;;6.80;;
7773;SDS011;3931;42.260;23.116;2023-01-23T12:32:50;10.07;;;6.60;;
7773;SDS011;3931;42.260;23.116;2023-01-23T12:35:28;10.30;;;7.00;;
7773;SDS011;3931;42.260;23.116;2023-01-23T12:38:08;11.10;;;6.73;;
7773;SDS011;3931;42.260;23.116;2023-01-23T12:40:39;10.00;;;6.60;;
7773;SDS011;3931;42.260;23.116;2023-01-23T12:43:10;9.50;;;6.37;;
7773;SDS011;3931;42.260;23.116;2023-01-23T12:45:41;12.20;;;7.63;;
7773;SDS011;3931;42.260;23.116;2023-01-23T12:48:14;8.67;;;7.00;;
7773;SDS011;3931;42.260;23.116;2023-01-23T12:50:45;10.63;;;6.57;;
7773;SDS011;3931;42.260;23.116;2023-01-23T12:53:15;14.03;;;8.10;;
7773;SDS011;3931;42.260;23.116;2023-01-23T12:55:44;7.60;;;5.63;;
7773;SDS011;3931;42.260;23.116;2023-01-23T12:58:18;12.27;;;8.20;;
7773;SDS011;3931;42.260;23.116;2023-01-23T13:00:48;18.90;;;10.07;;
7773;SDS011;3931;42.260;23.116;2023-01-23T13:03:34;14.13;;;7.67;;
7773;SDS011;3931;42.260;23.116;2023-01-23T13:06:15;9.23;;;6.43;;
7773;SDS011;3931;42.260;23.116;2023-01-23T13:08:52;19.10;;;5.43;;
7773;SDS011;3931;42.260;23.116;2023-01-23T13:11:24;11.57;;;7.00;;
7773;SDS011;3931;42.260;23.116;2023-01-23T13:14:17;10.00;;;7.40;;
7773;SDS011;3931;42.260;23.116;2023-01-23T13:16:48;14.23;;;7.60;;
7773;SDS011;3931;42.260;23.116;2023-01-23T13:19:25;12.57;;;7.40;;
7773;SDS011;3931;42.260;23.116;2023-01-23T13:22:12;17.00;;;8.60;;
7773;SDS011;3931;42.260;23.116;2023-01-23T13:24:43;11.27;;;7.10;;
7773;SDS011;3931;42.260;23.116;2023-01-23T13:27:41;10.47;;;6.43;;
7773;SDS011;3931;42.260;23.116;2023-01-23T13:33:47;14.80;;;8.50;;
7773;SDS011;3931;42.260;23.116;2023-01-23T13:36:19;17.00;;;9.87;;
7773;SDS011;3931;42.260;23.116;2023-01-23T13:38:59;17.50;;;9.23;;
7773;SDS011;3931;42.260;23.116;2023-01-23T13:41:30;15.90;;;7.20;;
7773;SDS011;3931;42.260;23.116;2023-01-23T13:44:01;15.93;;;10.10;;
7773;SDS011;3931;42.260;23.116;2023-01-23T13:46:30;10.40;;;7.50;;
7773;SDS011;3931;42.260;23.116;2023-01-23T13:49:06;22.30;;;9.77;;
7773;SDS011;3931;42.260;23.116;2023-01-23T13:51:55;36.17;;;18.43;;
7773;SDS011;3931;42.260;23.116;2023-01-23T13:54:26;18.57;;;10.17;;
7773;SDS011;3931;42.260;23.116;2023-01-23T13:57:13;14.47;;;8.20;;
7773;SDS011;3931;42.260;23.116;2023-01-23T13:59:41;18.27;;;9.37;;
7773;SDS011;3931;42.260;23.116;2023-01-23T14:02:15;22.93;;;13.13;;
7773;SDS011;3931;42.260;23.116;2023-01-23T14:05:05;14.13;;;8.87;;
7773;SDS011;3931;42.260;23.116;2023-01-23T14:07:37;18.67;;;7.10;;
7773;SDS011;3931;42.260;23.116;2023-01-23T14:10:13;6.73;;;5.07;;
7773;SDS011;3931;42.260;23.116;2023-01-23T14:12:41;7.10;;;5.30;;
7773;SDS011;3931;42.260;23.116;2023-01-23T14:15:16;14.03;;;6.70;;
7773;SDS011;3931;42.260;23.116;2023-01-23T14:18:01;8.60;;;6.03;;
7773;SDS011;3931;42.260;23.116;2023-01-23T14:20:29;17.87;;;7.13;;
7773;SDS011;3931;42.260;23.116;2023-01-23T14:23:02;9.13;;;6.70;;
7773;SDS011;3931;42.260;23.116;2023-01-23T14:25:31;10.27;;;6.87;;
7773;SDS011;3931;42.260;23.116;2023-01-23T14:28:01;10.47;;;7.20;;
7773;SDS011;3931;42.260;23.116;2023-01-23T14:30:28;11.17;;;6.37;;
7773;SDS011;3931;42.260;23.116;2023-01-23T14:32:55;9.43;;;6.73;;
7773;SDS011;3931;42.260;23.116;2023-01-23T14:35:24;8.90;;;7.03;;
7773;SDS011;3931;42.260;23.116;2023-01-23T14:37:52;15.90;;;7.00;;
7773;SDS011;3931;42.260;23.116;2023-01-23T14:40:23;12.50;;;7.77;;
7773;SDS011;3931;42.260;23.116;2023-01-23T14:42:52;11.53;;;7.87;;
7773;SDS011;3931;42.260;23.116;2023-01-23T14:45:22;12.90;;;8.10;;
7773;SDS011;3931;42.260;23.116;2023-01-23T14:47:48;17.70;;;10.80;;
7773;SDS011;3931;42.260;23.116;2023-01-23T14:50:15;23.13;;;12.70;;
7773;SDS011;3931;42.260;23.116;2023-01-23T14:52:43;15.53;;;9.43;;
7773;SDS011;3931;42.260;23.116;2023-01-23T14:55:19;15.33;;;9.60;;
7773;SDS011;3931;42.260;23.116;2023-01-23T14:57:47;13.30;;;7.60;;
7773;SDS011;3931;42.260;23.116;2023-01-23T15:00:16;25.70;;;9.40;;
7773;SDS011;3931;42.260;23.116;2023-01-23T15:02:44;17.57;;;9.90;;
7773;SDS011;3931;42.260;23.116;2023-01-23T15:05:18;12.07;;;8.00;;
7773;SDS011;3931;42.260;23.116;2023-01-23T15:07:47;10.67;;;7.77;;